Gail Cecilia — WDI7262 — position and weather

sailwx.info

Track history (hours):
 
Tides and Currents Weather Stations Pressure Air Temp Water Temp Dewpoint Dewpoint Depression Visibility Wind Speed Wind Dir Waves Ship Positions

Gail Cecilia

Owner: LeBeouf Bros. Towing, LLC, Houma, LA. More information available from US FCC via Universal Licensing System and Coast Guard Vessel Documentation Center.

Last reported at 2017-Nov-20 00:27 UTC. Time now 2017-Nov-21 13:40 UTC.
Position N 29°34' W 090°36'.

Length 24 m; draft 3 m.

Type: Tug. MMSI: 367726950.

Date/timePositionNaut miles runAvg speedWind from/ knotsBaromVisibWave heightAir tempDewpointWater temp
2017-Nov-20 00:27N 29°34' W 090°36'0 0.0
2017-Nov-19 23:41N 29°34' W 090°36'0 0.0
2017-Nov-19 23:26N 29°34' W 090°36'0 0.0
2017-Nov-19 12:24N 29°34' W 090°36'0 0.0
2017-Nov-19 05:58N 29°34' W 090°36'0 0.0
2017-Nov-19 05:31N 29°34' W 090°36'0 0.0
2017-Nov-19 04:54N 29°34' W 090°36'0 0.0
2017-Nov-19 04:25N 29°34' W 090°36'0 0.0
2017-Nov-19 03:56N 29°34' W 090°36'0 0.0
2017-Nov-19 00:39N 29°34' W 090°36'0 0.0
2017-Nov-19 00:28N 29°34' W 090°36'0 0.0
2017-Nov-18 23:59N 29°34' W 090°36'0 0.0
2017-Nov-18 22:27N 29°34' W 090°36'0 0.0
2017-Nov-18 21:52N 29°34' W 090°36'0 0.0
2017-Nov-18 21:25N 29°34' W 090°36'0 0.0
2017-Nov-18 20:50N 29°34' W 090°36'0 0.0
2017-Nov-18 20:25N 29°34' W 090°36'0 0.0
2017-Nov-18 19:44N 29°34' W 090°36'0 0.0
2017-Nov-18 16:52N 29°34' W 090°36'0 0.0
2017-Nov-18 16:17N 29°34' W 090°36'0 0.0
2017-Nov-18 16:00N 29°34' W 090°36'0 0.0
2017-Nov-18 14:37N 29°34' W 090°36'0 0.0
2017-Nov-18 14:29N 29°34' W 090°36'0 0.0
2017-Nov-18 14:01N 29°34' W 090°36'0 0.0
2017-Nov-18 13:29N 29°34' W 090°36'0 0.0
2017-Nov-18 12:57N 29°34' W 090°36'0 0.0
2017-Nov-18 12:05N 29°34' W 090°36'0 0.0
2017-Nov-18 10:39N 29°34' W 090°36'0 0.0
2017-Nov-18 10:30N 29°34' W 090°36'0 0.0
2017-Nov-18 05:46N 29°34' W 090°36'0 0.0
2017-Nov-18 05:28N 29°34' W 090°36'0 0.0
2017-Nov-18 03:06N 29°34' W 090°36'0 0.0
2017-Nov-18 01:53N 29°34' W 090°36'0 0.0
2017-Nov-18 01:30N 29°34' W 090°36'0 0.0
2017-Nov-17 23:51N 29°34' W 090°36'0 1.0
2017-Nov-17 23:30N 29°35' W 090°35'0 0.0
2017-Nov-17 23:01N 29°35' W 090°35'0 0.7
2017-Nov-17 22:30N 29°34' W 090°36'0 0.0
2017-Nov-17 22:00N 29°34' W 090°36'0 0.0
2017-Nov-17 21:30N 29°34' W 090°36'0 0.0
2017-Nov-17 21:00N 29°34' W 090°36'0 0.0
2017-Nov-17 20:31N 29°34' W 090°36'0 0.0
2017-Nov-17 20:00N 29°34' W 090°36'0 0.9
2017-Nov-17 19:31N 29°35' W 090°36'1 2.3
2017-Nov-17 19:00N 29°35' W 090°37'4 7.4
2017-Nov-17 18:30N 29°36' W 090°41'2 3.9
2017-Nov-17 18:01N 29°35' W 090°43'2 3.9
2017-Nov-17 17:31N 29°34' W 090°44'3 5.6
2017-Nov-17 17:00N 29°32' W 090°47'10 7.6
2017-Nov-17 15:44N 29°35' W 090°58'46 1.8
2017-Nov-16 14:18N 29°47' W 091°49'5 5.5
2017-Nov-16 13:22N 29°51' W 091°53'2 6.6
2017-Nov-16 13:01N 29°51' W 091°56'3 5.2
2017-Nov-16 12:30N 29°50' W 091°59'3 6.5
2017-Nov-16 11:58N 29°49' W 092°03'3 5.8
2017-Nov-16 11:31N 29°48' W 092°06'1 1.1
2017-Nov-16 11:00N 29°48' W 092°06'0 0.0
2017-Nov-16 10:30N 29°48' W 092°06'0 0.0
2017-Nov-16 10:01N 29°48' W 092°06'0 0.0
2017-Nov-16 09:30N 29°48' W 092°06'0 0.0
2017-Nov-16 09:01N 29°48' W 092°06'0 0.0
2017-Nov-16 08:30N 29°48' W 092°06'0 0.0
2017-Nov-16 08:01N 29°48' W 092°06'0 0.0
2017-Nov-16 07:30N 29°48' W 092°06'0 0.0
2017-Nov-16 07:00N 29°48' W 092°06'0 0.0
2017-Nov-16 06:30N 29°48' W 092°06'0 0.1
2017-Nov-16 06:01N 29°48' W 092°06'0 0.0
2017-Nov-16 05:31N 29°48' W 092°06'0 0.0
2017-Nov-16 05:01N 29°48' W 092°06'2 4.3
2017-Nov-16 04:30N 29°47' W 092°09'3 6.0
2017-Nov-16 04:01N 29°47' W 092°12'1 1.1
2017-Nov-16 03:31N 29°47' W 092°13'2 3.6
2017-Nov-16 03:01N 29°48' W 092°14'3 6.0
2017-Nov-16 02:31N 29°49' W 092°18'3 5.2
2017-Nov-16 01:53N 29°51' W 092°21'40 5.4
2017-Nov-15 18:19N 29°56' W 093°07'2 5.3
2017-Nov-15 17:57N 29°56' W 093°09'3 5.9
2017-Nov-15 17:30N 29°58' W 093°11'3 5.7
2017-Nov-15 16:57N 30°01' W 093°14'2 5.3
2017-Nov-15 16:30N 30°02' W 093°15'3 6.0
2017-Nov-15 16:00N 30°05' W 093°17'1 1.6
2017-Nov-15 15:30N 30°05' W 093°18'1 1.3
2017-Nov-15 15:00N 30°06' W 093°18'1 1.4
2017-Nov-15 14:30N 30°06' W 093°19'3 5.9
2017-Nov-15 14:00N 30°04' W 093°21'3 5.9
2017-Nov-15 13:30N 30°04' W 093°25'3 6.1
2017-Nov-15 13:00N 30°04' W 093°28'81 5.4
2017-Nov-14 22:01N 29°32' W 094°54'0 7.5
2017-Nov-14 22:00N 29°33' W 094°54'4 7.8
2017-Nov-14 21:30N 29°36' W 094°57'4 7.8
2017-Nov-14 21:00N 29°39' W 094°58'4 7.0
2017-Nov-14 20:27N 29°42' W 095°01'1 0.1
2017-Nov-14 08:40N 29°42' W 095°03'0 0.0
2017-Nov-14 08:19N 29°42' W 095°03'0 0.0
2017-Nov-14 07:56N 29°42' W 095°03'0 0.0
2017-Nov-14 07:29N 29°42' W 095°03'0 0.0
2017-Nov-14 01:05N 29°42' W 095°03'0 0.0
2017-Nov-13 02:00N 29°42' W 095°03'0 0.0
2017-Nov-12 11:07N 29°42' W 095°03'0 0.0
2017-Nov-12 05:21N 29°42' W 095°03'0 0.0
2017-Nov-12 04:09N 29°42' W 095°03'0 0.0
2017-Nov-12 03:57N 29°42' W 095°03'0 0.0
2017-Nov-10 17:43N 29°42' W 095°03'1 4.7
2017-Nov-10 17:27N 29°42' W 095°01'6 1.1
2017-Nov-10 11:59N 29°44' W 095°08'0 0.0
2017-Nov-10 06:53N 29°44' W 095°08'0 0.1
2017-Nov-10 05:36N 29°44' W 095°08'0 0.3
2017-Nov-10 05:21N 29°44' W 095°08'4 4.1
2017-Nov-10 04:20N 29°44' W 095°03'2 2.9
2017-Nov-10 03:46N 29°42' W 095°03'0 0.2
2017-Nov-10 03:27N 29°42' W 095°03'0 0.0
2017-Nov-10 03:00N 29°42' W 095°03'0 0.0
2017-Nov-10 02:28N 29°42' W 095°03'0 0.0
2017-Nov-10 02:00N 29°42' W 095°03'0 0.0
2017-Nov-10 01:30N 29°42' W 095°03'0 0.0
2017-Nov-10 00:59N 29°42' W 095°03'0 0.0
2017-Nov-10 00:29N 29°42' W 095°03'  
Track history (hours):
 
Tides and Currents Weather Stations Pressure Air Temp Water Temp Dewpoint Dewpoint Depression Visibility Wind Speed Wind Dir Waves Ship Positions

Gail Cecilia

Owner: LeBeouf Bros. Towing, LLC, Houma, LA. More information available from US FCC via Universal Licensing System and Coast Guard Vessel Documentation Center.

Last reported at 2017-Nov-20 00:27 UTC. Time now 2017-Nov-21 13:40 UTC.
Position N 29°34' W 090°36'.

Length 24 m; draft 3 m.

Type: Tug. MMSI: 367726950.

Date/timePositionNaut miles runAvg speedWind from/ knotsBaromVisibWave heightAir tempDewpointWater temp
2017-Nov-20 00:27N 29°34' W 090°36'0 0.0
2017-Nov-19 23:41N 29°34' W 090°36'0 0.0
2017-Nov-19 23:26N 29°34' W 090°36'0 0.0
2017-Nov-19 12:24N 29°34' W 090°36'0 0.0
2017-Nov-19 05:58N 29°34' W 090°36'0 0.0
2017-Nov-19 05:31N 29°34' W 090°36'0 0.0
2017-Nov-19 04:54N 29°34' W 090°36'0 0.0
2017-Nov-19 04:25N 29°34' W 090°36'0 0.0
2017-Nov-19 03:56N 29°34' W 090°36'0 0.0
2017-Nov-19 00:39N 29°34' W 090°36'0 0.0
2017-Nov-19 00:28N 29°34' W 090°36'0 0.0
2017-Nov-18 23:59N 29°34' W 090°36'0 0.0
2017-Nov-18 22:27N 29°34' W 090°36'0 0.0
2017-Nov-18 21:52N 29°34' W 090°36'0 0.0
2017-Nov-18 21:25N 29°34' W 090°36'0 0.0
2017-Nov-18 20:50N 29°34' W 090°36'0 0.0
2017-Nov-18 20:25N 29°34' W 090°36'0 0.0
2017-Nov-18 19:44N 29°34' W 090°36'0 0.0
2017-Nov-18 16:52N 29°34' W 090°36'0 0.0
2017-Nov-18 16:17N 29°34' W 090°36'0 0.0
2017-Nov-18 16:00N 29°34' W 090°36'0 0.0
2017-Nov-18 14:37N 29°34' W 090°36'0 0.0
2017-Nov-18 14:29N 29°34' W 090°36'0 0.0
2017-Nov-18 14:01N 29°34' W 090°36'0 0.0
2017-Nov-18 13:29N 29°34' W 090°36'0 0.0
2017-Nov-18 12:57N 29°34' W 090°36'0 0.0
2017-Nov-18 12:05N 29°34' W 090°36'0 0.0
2017-Nov-18 10:39N 29°34' W 090°36'0 0.0
2017-Nov-18 10:30N 29°34' W 090°36'0 0.0
2017-Nov-18 05:46N 29°34' W 090°36'0 0.0
2017-Nov-18 05:28N 29°34' W 090°36'0 0.0
2017-Nov-18 03:06N 29°34' W 090°36'0 0.0
2017-Nov-18 01:53N 29°34' W 090°36'0 0.0
2017-Nov-18 01:30N 29°34' W 090°36'0 0.0
2017-Nov-17 23:51N 29°34' W 090°36'0 1.0
2017-Nov-17 23:30N 29°35' W 090°35'0 0.0
2017-Nov-17 23:01N 29°35' W 090°35'0 0.7
2017-Nov-17 22:30N 29°34' W 090°36'0 0.0
2017-Nov-17 22:00N 29°34' W 090°36'0 0.0
2017-Nov-17 21:30N 29°34' W 090°36'0 0.0
2017-Nov-17 21:00N 29°34' W 090°36'0 0.0
2017-Nov-17 20:31N 29°34' W 090°36'0 0.0
2017-Nov-17 20:00N 29°34' W 090°36'0 0.9
2017-Nov-17 19:31N 29°35' W 090°36'1 2.3
2017-Nov-17 19:00N 29°35' W 090°37'4 7.4
2017-Nov-17 18:30N 29°36' W 090°41'2 3.9
2017-Nov-17 18:01N 29°35' W 090°43'2 3.9
2017-Nov-17 17:31N 29°34' W 090°44'3 5.6
2017-Nov-17 17:00N 29°32' W 090°47'10 7.6
2017-Nov-17 15:44N 29°35' W 090°58'46 1.8
2017-Nov-16 14:18N 29°47' W 091°49'5 5.5
2017-Nov-16 13:22N 29°51' W 091°53'2 6.6
2017-Nov-16 13:01N 29°51' W 091°56'3 5.2
2017-Nov-16 12:30N 29°50' W 091°59'3 6.5
2017-Nov-16 11:58N 29°49' W 092°03'3 5.8
2017-Nov-16 11:31N 29°48' W 092°06'1 1.1
2017-Nov-16 11:00N 29°48' W 092°06'0 0.0
2017-Nov-16 10:30N 29°48' W 092°06'0 0.0
2017-Nov-16 10:01N 29°48' W 092°06'0 0.0
2017-Nov-16 09:30N 29°48' W 092°06'0 0.0
2017-Nov-16 09:01N 29°48' W 092°06'0 0.0
2017-Nov-16 08:30N 29°48' W 092°06'0 0.0
2017-Nov-16 08:01N 29°48' W 092°06'0 0.0
2017-Nov-16 07:30N 29°48' W 092°06'0 0.0
2017-Nov-16 07:00N 29°48' W 092°06'0 0.0
2017-Nov-16 06:30N 29°48' W 092°06'0 0.1
2017-Nov-16 06:01N 29°48' W 092°06'0 0.0
2017-Nov-16 05:31N 29°48' W 092°06'0 0.0
2017-Nov-16 05:01N 29°48' W 092°06'2 4.3
2017-Nov-16 04:30N 29°47' W 092°09'3 6.0
2017-Nov-16 04:01N 29°47' W 092°12'1 1.1
2017-Nov-16 03:31N 29°47' W 092°13'2 3.6
2017-Nov-16 03:01N 29°48' W 092°14'3 6.0
2017-Nov-16 02:31N 29°49' W 092°18'3 5.2
2017-Nov-16 01:53N 29°51' W 092°21'40 5.4
2017-Nov-15 18:19N 29°56' W 093°07'2 5.3
2017-Nov-15 17:57N 29°56' W 093°09'3 5.9
2017-Nov-15 17:30N 29°58' W 093°11'3 5.7
2017-Nov-15 16:57N 30°01' W 093°14'2 5.3
2017-Nov-15 16:30N 30°02' W 093°15'3 6.0
2017-Nov-15 16:00N 30°05' W 093°17'1 1.6
2017-Nov-15 15:30N 30°05' W 093°18'1 1.3
2017-Nov-15 15:00N 30°06' W 093°18'1 1.4
2017-Nov-15 14:30N 30°06' W 093°19'3 5.9
2017-Nov-15 14:00N 30°04' W 093°21'3 5.9
2017-Nov-15 13:30N 30°04' W 093°25'3 6.1
2017-Nov-15 13:00N 30°04' W 093°28'81 5.4
2017-Nov-14 22:01N 29°32' W 094°54'0 7.5
2017-Nov-14 22:00N 29°33' W 094°54'4 7.8
2017-Nov-14 21:30N 29°36' W 094°57'4 7.8
2017-Nov-14 21:00N 29°39' W 094°58'4 7.0
2017-Nov-14 20:27N 29°42' W 095°01'1 0.1
2017-Nov-14 08:40N 29°42' W 095°03'0 0.0
2017-Nov-14 08:19N 29°42' W 095°03'0 0.0
2017-Nov-14 07:56N 29°42' W 095°03'0 0.0
2017-Nov-14 07:29N 29°42' W 095°03'0 0.0
2017-Nov-14 01:05N 29°42' W 095°03'0 0.0
2017-Nov-13 02:00N 29°42' W 095°03'0 0.0
2017-Nov-12 11:07N 29°42' W 095°03'0 0.0
2017-Nov-12 05:21N 29°42' W 095°03'0 0.0
2017-Nov-12 04:09N 29°42' W 095°03'0 0.0
2017-Nov-12 03:57N 29°42' W 095°03'0 0.0
2017-Nov-10 17:43N 29°42' W 095°03'1 4.7
2017-Nov-10 17:27N 29°42' W 095°01'6 1.1
2017-Nov-10 11:59N 29°44' W 095°08'0 0.0
2017-Nov-10 06:53N 29°44' W 095°08'0 0.1
2017-Nov-10 05:36N 29°44' W 095°08'0 0.3
2017-Nov-10 05:21N 29°44' W 095°08'4 4.1
2017-Nov-10 04:20N 29°44' W 095°03'2 2.9
2017-Nov-10 03:46N 29°42' W 095°03'0 0.2
2017-Nov-10 03:27N 29°42' W 095°03'0 0.0
2017-Nov-10 03:00N 29°42' W 095°03'0 0.0
2017-Nov-10 02:28N 29°42' W 095°03'0 0.0
2017-Nov-10 02:00N 29°42' W 095°03'0 0.0
2017-Nov-10 01:30N 29°42' W 095°03'0 0.0
2017-Nov-10 00:59N 29°42' W 095°03'0 0.0
2017-Nov-10 00:29N 29°42' W 095°03'  

Dump ship's entire track history